createdAt,value
2019-04-21T00:01:14.437Z,5.43
2019-04-21T00:03:48.358Z,4.93
2019-04-21T00:06:29.923Z,5.83
2019-04-21T00:09:02.393Z,6.40
2019-04-21T00:11:29.573Z,8.13
2019-04-21T00:13:49.611Z,5.23
2019-04-21T00:16:07.493Z,4.53
2019-04-21T00:18:40.703Z,9.13
2019-04-21T00:21:12.275Z,5.93
2019-04-21T00:23:48.972Z,6.07
2019-04-21T00:26:16.492Z,6.53
2019-04-21T00:31:24.843Z,7.43
2019-04-21T00:33:37.317Z,6.90
2019-04-21T00:36:10.208Z,8.32
2019-04-21T00:39:04.122Z,6.70
2019-04-21T00:41:19.269Z,7.27
2019-04-21T00:43:41.318Z,8.57
2019-04-21T00:46:03.233Z,7.00
2019-04-21T00:48:47.587Z,6.20
2019-04-21T00:51:27.618Z,6.35
2019-04-21T00:53:52.211Z,11.20
2019-04-21T00:56:15.318Z,7.43
2019-04-21T00:58:39.322Z,5.60
2019-04-21T01:01:12.147Z,6.70
2019-04-21T01:06:16.356Z,6.95
2019-04-21T01:08:41.206Z,6.80
2019-04-21T01:11:01.504Z,6.00
2019-04-21T01:13:42.620Z,11.67
2019-04-21T01:16:05.665Z,7.07
2019-04-21T01:20:47.508Z,10.27
2019-04-21T01:23:16.720Z,7.67
2019-04-21T01:25:57.178Z,6.93
2019-04-21T01:28:29.321Z,6.87
2019-04-21T01:31:05.589Z,8.13
2019-04-21T01:33:32.508Z,6.60
2019-04-21T01:35:54.954Z,7.17
2019-04-21T01:38:32.009Z,7.13
2019-04-21T01:41:05.153Z,6.83
2019-04-21T01:43:24.695Z,7.23
2019-04-21T01:45:51.954Z,6.43
2019-04-21T01:48:15.866Z,5.87
2019-04-21T01:50:47.040Z,8.00
2019-04-21T01:53:24.359Z,6.33
2019-04-21T01:56:04.852Z,7.83
2019-04-21T01:58:27.055Z,9.03
2019-04-21T02:06:15.938Z,10.07
2019-04-21T02:08:34.688Z,6.20
2019-04-21T02:11:05.246Z,7.80
2019-04-21T02:13:27.974Z,8.50
2019-04-21T02:18:29.189Z,7.00
2019-04-21T02:20:47.632Z,7.60
2019-04-21T02:23:34.984Z,5.10
2019-04-21T02:25:58.795Z,7.50
2019-04-21T02:28:29.889Z,10.00
2019-04-21T02:33:39.175Z,6.17
2019-04-21T02:36:17.065Z,5.82
2019-04-21T02:38:37.784Z,7.27
2019-04-21T02:40:49.508Z,6.12
2019-04-21T02:43:24.888Z,5.60
2019-04-21T02:45:56.062Z,7.15
2019-04-21T02:48:36.981Z,7.60
2019-04-21T02:50:47.304Z,8.02
2019-04-21T02:53:30.365Z,5.67
2019-04-21T02:55:44.048Z,7.55
2019-04-21T02:58:18.324Z,8.73
2019-04-21T03:03:19.640Z,6.47
2019-04-21T03:11:08.674Z,6.20
2019-04-21T03:13:40.569Z,6.10
2019-04-21T03:16:23.527Z,6.10
2019-04-21T03:18:39.976Z,5.40
2019-04-21T03:36:37.193Z,4.80
2019-04-21T03:41:00.978Z,5.50
2019-04-21T03:43:34.854Z,6.33
2019-04-21T03:45:49.582Z,5.93
2019-04-21T03:48:28.797Z,5.77
2019-04-21T03:50:46.934Z,5.27
2019-04-21T03:53:25.007Z,8.27
2019-04-21T03:55:53.325Z,5.90
2019-04-21T04:01:00.393Z,14.87
2019-04-21T04:08:35.011Z,7.65
2019-04-21T04:13:34.013Z,5.45
2019-04-21T04:16:00.514Z,5.50
2019-04-21T04:18:28.312Z,5.30
2019-04-21T04:21:06.070Z,4.60
2019-04-21T04:23:31.037Z,5.27
2019-04-21T04:25:43.789Z,5.03
2019-04-21T04:28:28.743Z,5.03
2019-04-21T04:30:37.860Z,5.43
2019-04-21T04:33:10.249Z,5.73
2019-04-21T04:35:49.429Z,5.83
2019-04-21T04:38:03.357Z,6.68
2019-04-21T04:40:48.534Z,7.65
2019-04-21T04:45:48.248Z,5.57
2019-04-21T04:53:11.990Z,5.55
2019-04-21T04:55:39.191Z,4.77
2019-04-21T04:58:40.448Z,4.07
2019-04-21T05:13:48.538Z,4.63
2019-04-21T05:16:24.459Z,4.13
2019-04-21T05:18:45.199Z,4.30
2019-04-21T05:23:31.245Z,4.93
2019-04-21T05:25:54.381Z,5.30
2019-04-21T05:28:25.995Z,4.30
2019-04-21T05:31:13.846Z,6.33
2019-04-21T05:33:43.058Z,4.50
2019-04-21T05:36:04.785Z,5.00
2019-04-21T05:41:26.577Z,5.10
2019-04-21T05:44:05.339Z,4.43
2019-04-21T05:46:34.403Z,5.40
2019-04-21T05:51:31.739Z,5.32
2019-04-21T05:54:09.286Z,6.70
2019-04-21T05:56:32.617Z,5.07
2019-04-21T06:01:40.879Z,6.20
2019-04-21T06:06:39.660Z,6.10
2019-04-21T06:09:10.034Z,7.60
2019-04-21T06:11:36.369Z,7.13
2019-04-21T06:14:10.874Z,7.40
2019-04-21T06:16:40.485Z,6.33
2019-04-21T06:19:25.508Z,7.67
2019-04-21T06:21:33.345Z,6.30
2019-04-21T06:23:57.568Z,9.60
2019-04-21T06:26:53.826Z,11.10
2019-04-21T06:29:08.634Z,7.43
2019-04-21T06:33:50.841Z,7.60
2019-04-21T06:39:11.762Z,7.53
2019-04-21T06:41:27.815Z,8.70
2019-04-21T06:43:56.679Z,6.60
2019-04-21T06:46:20.080Z,5.37
2019-04-21T06:48:49.352Z,5.67
2019-04-21T06:51:16.975Z,6.30
2019-04-21T06:53:46.019Z,6.93
2019-04-21T06:56:20.493Z,6.30
2019-04-21T06:58:35.907Z,5.40
2019-04-21T07:01:10.491Z,6.10
2019-04-21T07:03:42.263Z,6.17
2019-04-21T07:06:07.840Z,6.73
2019-04-21T07:08:34.566Z,6.10
2019-04-21T07:11:03.310Z,7.03
2019-04-21T07:13:25.364Z,6.37
2019-04-21T07:18:27.265Z,8.40
2019-04-21T07:20:53.158Z,6.72
2019-04-21T07:23:24.097Z,7.87
2019-04-21T07:25:51.956Z,6.80
2019-04-21T07:28:23.316Z,6.00
2019-04-21T07:30:55.997Z,5.97
2019-04-21T07:35:51.781Z,5.90
2019-04-21T07:40:48.354Z,5.70
2019-04-21T07:43:18.397Z,5.95
2019-04-21T07:51:25.409Z,4.90
2019-04-21T07:53:59.590Z,5.63
2019-04-21T07:56:06.539Z,5.57
2019-04-21T07:58:56.286Z,5.40
2019-04-21T08:01:20.770Z,5.40
2019-04-21T08:03:45.379Z,5.33
2019-04-21T08:08:49.217Z,6.20
2019-04-21T08:11:16.752Z,6.67
2019-04-21T08:13:57.948Z,5.70
2019-04-21T08:16:10.876Z,5.83
2019-04-21T08:18:44.173Z,6.53
2019-04-21T08:21:08.481Z,5.47
2019-04-21T08:23:39.625Z,5.10
2019-04-21T08:31:01.281Z,5.00
2019-04-21T08:33:42.805Z,5.70
2019-04-21T08:41:08.144Z,5.80
2019-04-21T08:43:48.122Z,5.37
2019-04-21T08:45:58.768Z,4.63
2019-04-21T08:48:33.438Z,8.13
2019-04-21T08:51:05.549Z,5.37
2019-04-21T08:53:27.468Z,10.60
2019-04-21T09:01:02.408Z,5.30
2019-04-21T09:03:28.494Z,4.43
2019-04-21T09:05:59.901Z,5.80
2019-04-21T09:13:37.121Z,4.60
2019-04-21T09:18:32.532Z,4.00
2019-04-21T09:23:39.190Z,4.20
2019-04-21T09:26:14.400Z,4.40
2019-04-21T09:28:35.506Z,3.90
2019-04-21T09:33:29.712Z,4.25
2019-04-21T09:35:56.370Z,4.23
2019-04-21T09:40:59.429Z,4.00
2019-04-21T09:43:35.464Z,8.55
2019-04-21T09:45:54.834Z,4.50
2019-04-21T09:48:25.871Z,4.13
2019-04-21T09:50:52.481Z,3.70
2019-04-21T09:53:28.830Z,4.10
2019-04-21T09:55:54.250Z,4.17
2019-04-21T09:58:23.943Z,3.60
2019-04-21T10:01:00.047Z,4.70
2019-04-21T10:03:16.291Z,3.70
2019-04-21T10:05:42.689Z,3.90
2019-04-21T10:08:12.434Z,3.70
2019-04-21T10:10:40.029Z,3.37
2019-04-21T10:13:10.630Z,4.40
2019-04-21T10:15:38.288Z,4.93
2019-04-21T10:18:08.541Z,3.63
2019-04-21T10:23:11.291Z,2.80
2019-04-21T10:28:12.962Z,3.70
2019-04-21T10:30:42.558Z,4.03
2019-04-21T10:33:10.368Z,3.83
2019-04-21T10:35:39.264Z,3.27
2019-04-21T10:38:18.006Z,3.93
2019-04-21T10:40:37.127Z,4.30
2019-04-21T10:43:03.940Z,3.27
2019-04-21T10:45:32.702Z,3.67
2019-04-21T10:48:00.944Z,3.97
2019-04-21T10:50:28.763Z,3.27
2019-04-21T10:52:58.723Z,3.43
2019-04-21T10:58:10.678Z,4.10
2019-04-21T11:00:37.855Z,4.22
2019-04-21T11:05:40.764Z,4.22
2019-04-21T11:10:45.641Z,4.12
2019-04-21T11:13:12.670Z,3.80
2019-04-21T11:18:15.696Z,3.97
2019-04-21T11:20:44.735Z,3.60
2019-04-21T11:25:46.556Z,3.60
2019-04-21T11:30:50.863Z,3.80
2019-04-21T11:33:17.632Z,4.00
2019-04-21T11:35:45.986Z,4.10
2019-04-21T11:38:22.415Z,3.93
2019-04-21T11:43:24.048Z,3.80
2019-04-21T11:45:52.596Z,3.50
2019-04-21T11:48:21.878Z,4.13
2019-04-21T11:50:48.894Z,4.37
2019-04-21T11:53:17.381Z,6.80
2019-04-21T11:55:48.539Z,4.30
2019-04-21T12:00:50.194Z,3.95
2019-04-21T12:03:17.350Z,4.20
2019-04-21T12:08:30.284Z,4.25
2019-04-21T12:10:49.817Z,3.80
2019-04-21T12:13:18.314Z,4.10
2019-04-21T12:15:47.166Z,3.83
2019-04-21T12:18:15.546Z,4.13
2019-04-21T12:20:43.324Z,4.40
2019-04-21T12:23:12.189Z,4.37
2019-04-21T12:28:19.602Z,4.80
2019-04-21T12:30:49.645Z,4.07
2019-04-21T12:33:20.218Z,3.97
2019-04-21T12:38:37.871Z,5.57
2019-04-21T12:43:30.694Z,11.68
2019-04-21T12:45:58.334Z,4.33
2019-04-21T12:48:28.179Z,3.33
2019-04-21T12:50:55.301Z,3.70
2019-04-21T12:53:23.657Z,4.40
2019-04-21T12:55:52.008Z,3.85
2019-04-21T12:58:21.488Z,3.67
2019-04-21T13:00:49.636Z,3.40
2019-04-21T13:03:20.468Z,3.60
2019-04-21T13:05:47.452Z,4.80
2019-04-21T13:08:15.446Z,4.00
2019-04-21T13:10:44.289Z,3.93
2019-04-21T13:13:12.146Z,3.50
2019-04-21T13:15:40.014Z,3.63
2019-04-21T13:18:08.365Z,3.70
2019-04-21T13:20:37.923Z,3.70
2019-04-21T13:23:05.945Z,4.00
2019-04-21T13:25:33.897Z,3.70
2019-04-21T13:28:02.847Z,3.93
2019-04-21T13:30:30.578Z,3.30
2019-04-21T13:32:58.950Z,3.50
2019-04-21T13:35:26.971Z,5.13
2019-04-21T13:37:56.283Z,3.92
2019-04-21T13:40:45.125Z,3.60
2019-04-21T13:43:00.385Z,4.25
2019-04-21T13:45:25.949Z,3.80
2019-04-21T13:47:54.486Z,4.43
2019-04-21T13:50:21.550Z,4.33
2019-04-21T13:52:51.038Z,3.50
2019-04-21T13:55:19.369Z,3.67
2019-04-21T13:57:48.245Z,3.80
2019-04-21T14:00:15.585Z,3.47
2019-04-21T14:05:18.415Z,3.80
2019-04-21T14:07:48.052Z,3.73
2019-04-21T14:10:16.092Z,3.70
2019-04-21T14:12:44.484Z,3.60
2019-04-21T14:15:12.499Z,3.77
2019-04-21T14:17:40.220Z,3.50
2019-04-21T14:20:09.121Z,3.83
2019-04-21T14:22:38.064Z,4.00
2019-04-21T14:27:41.917Z,3.47
2019-04-21T14:30:10.479Z,3.70
2019-04-21T14:32:40.071Z,3.53
2019-04-21T14:35:07.049Z,3.00
2019-04-21T14:40:14.624Z,3.35
2019-04-21T14:42:38.278Z,4.65
2019-04-21T14:45:07.022Z,3.33
2019-04-21T14:47:37.982Z,3.33
2019-04-21T14:50:13.607Z,4.80
2019-04-21T14:52:41.394Z,7.97
2019-04-21T14:55:10.334Z,5.70
2019-04-21T14:57:39.122Z,4.13
2019-04-21T15:00:11.151Z,5.00
2019-04-21T15:02:39.960Z,3.27
2019-04-21T15:05:07.181Z,3.27
2019-04-21T15:07:35.517Z,2.87
2019-04-21T15:10:13.324Z,3.60
2019-04-21T15:12:34.054Z,3.33
2019-04-21T15:15:02.424Z,4.23
2019-04-21T15:17:31.683Z,4.93
2019-04-21T15:20:04.592Z,3.10
2019-04-21T15:22:28.333Z,3.85
2019-04-21T15:24:56.297Z,4.17
2019-04-21T15:27:25.113Z,2.77
2019-04-21T15:29:53.033Z,3.83
2019-04-21T15:34:56.115Z,4.30
2019-04-21T15:37:24.098Z,3.73
2019-04-21T15:39:53.067Z,4.20
2019-04-21T15:42:20.959Z,4.60
2019-04-21T15:44:50.408Z,7.63
2019-04-21T15:47:17.787Z,5.33
2019-04-21T15:52:22.291Z,4.03
2019-04-21T15:54:50.582Z,3.50
2019-04-21T15:57:19.589Z,5.27
2019-04-21T16:02:44.633Z,3.50
2019-04-21T16:05:13.016Z,4.40
2019-04-21T16:07:41.142Z,5.40
2019-04-21T16:10:10.676Z,5.50
2019-04-21T16:12:37.879Z,3.60
2019-04-21T16:15:05.957Z,4.03
2019-04-21T16:20:10.180Z,4.03
2019-04-21T16:22:37.265Z,9.70
2019-04-21T16:25:06.598Z,4.87
2019-04-21T16:27:35.400Z,3.73
2019-04-21T16:30:06.001Z,4.20
2019-04-21T16:32:34.287Z,5.07
2019-04-21T16:35:08.262Z,4.10
2019-04-21T16:40:05.358Z,4.15
2019-04-21T16:42:34.159Z,5.20
2019-04-21T16:45:03.212Z,4.50
2019-04-21T16:50:07.679Z,4.30
2019-04-21T16:52:50.380Z,4.60
2019-04-21T16:55:19.070Z,4.67
2019-04-21T16:58:02.758Z,4.73
2019-04-21T17:00:27.887Z,4.10
2019-04-21T17:05:22.401Z,3.97
2019-04-21T17:10:24.550Z,4.47
2019-04-21T17:12:53.663Z,5.60
2019-04-21T17:15:37.653Z,6.10
2019-04-21T17:18:07.871Z,3.67
2019-04-21T17:20:31.000Z,3.70
2019-04-21T17:22:47.098Z,3.97
2019-04-21T17:25:16.103Z,3.53
2019-04-21T17:30:18.823Z,4.20
2019-04-21T17:32:49.448Z,4.23
2019-04-21T17:35:16.315Z,3.53
2019-04-21T17:37:43.562Z,3.67
2019-04-21T17:40:13.435Z,4.15
2019-04-21T17:42:46.318Z,4.13
2019-04-21T17:45:09.020Z,4.50
2019-04-21T17:47:46.808Z,9.98
2019-04-21T17:50:13.648Z,6.47
2019-04-21T17:52:53.667Z,5.10
2019-04-21T17:55:27.515Z,4.13
2019-04-21T17:58:03.409Z,3.80
2019-04-21T18:01:03.622Z,3.90
2019-04-21T18:05:39.317Z,4.00
2019-04-21T18:08:11.368Z,4.33
2019-04-21T18:10:30.688Z,4.23
2019-04-21T18:12:55.329Z,4.23
2019-04-21T18:17:47.312Z,3.47
2019-04-21T18:20:17.211Z,4.10
2019-04-21T18:22:47.968Z,3.77
2019-04-21T18:25:33.355Z,5.23
2019-04-21T18:30:30.996Z,5.03
2019-04-21T18:32:59.977Z,3.97
2019-04-21T18:35:35.823Z,4.80
2019-04-21T18:38:08.007Z,4.20
2019-04-21T18:48:32.833Z,5.10
2019-04-21T18:50:57.286Z,5.00
2019-04-21T18:53:44.164Z,7.13
2019-04-21T18:55:58.211Z,5.10
2019-04-21T18:58:22.170Z,6.47
2019-04-21T19:00:51.260Z,4.87
2019-04-21T19:03:25.419Z,4.93
2019-04-21T19:08:38.730Z,6.30
2019-04-21T19:11:10.517Z,4.73
2019-04-21T19:13:49.536Z,5.40
2019-04-21T19:18:45.848Z,8.23
2019-04-21T19:24:07.181Z,6.90
2019-04-21T19:26:21.697Z,5.73
2019-04-21T19:28:50.196Z,6.73
2019-04-21T19:31:11.531Z,5.87
2019-04-21T19:33:30.083Z,5.55
2019-04-21T19:35:47.629Z,7.40
2019-04-21T19:38:18.691Z,6.83
2019-04-21T19:43:41.674Z,16.27
2019-04-21T19:46:04.354Z,14.65
2019-04-21T19:48:41.536Z,12.88
2019-04-21T19:51:04.301Z,18.93
2019-04-21T19:53:24.269Z,9.97
2019-04-21T19:55:42.406Z,7.10
2019-04-21T19:58:10.755Z,11.27
2019-04-21T20:00:38.151Z,10.27
2019-04-21T20:03:06.538Z,7.33
2019-04-21T20:05:41.805Z,6.70
2019-04-21T20:08:17.650Z,12.60
2019-04-21T20:13:35.274Z,8.33
2019-04-21T20:15:57.110Z,6.47
2019-04-21T20:18:15.307Z,8.88
2019-04-21T20:20:31.104Z,7.77
2019-04-21T20:25:41.813Z,7.90
2019-04-21T20:28:09.651Z,4.50
2019-04-21T20:30:52.716Z,5.47
2019-04-21T20:33:39.738Z,7.70
2019-04-21T20:35:52.279Z,7.40
2019-04-21T20:38:09.361Z,10.03
2019-04-21T20:40:36.306Z,8.47
2019-04-21T20:43:11.314Z,7.90
2019-04-21T20:45:40.181Z,6.67
2019-04-21T20:47:53.997Z,7.17
2019-04-21T20:50:29.826Z,7.00
2019-04-21T20:53:06.112Z,6.80
2019-04-21T20:57:57.774Z,4.90
2019-04-21T21:00:43.041Z,10.03
2019-04-21T21:03:07.467Z,4.80
2019-04-21T21:05:27.341Z,7.27
2019-04-21T21:08:06.521Z,7.20
2019-04-21T21:10:27.744Z,5.30
2019-04-21T21:15:22.788Z,5.40
2019-04-21T21:18:01.544Z,6.43
2019-04-21T21:20:27.052Z,8.90
2019-04-21T21:22:48.066Z,4.73
2019-04-21T21:25:29.988Z,6.03
2019-04-21T21:27:41.844Z,4.60
2019-04-21T21:30:10.024Z,5.20
2019-04-21T21:32:47.472Z,5.77
2019-04-21T21:35:13.477Z,4.27
2019-04-21T21:37:46.755Z,5.43
2019-04-21T21:40:11.423Z,5.50
2019-04-21T21:42:27.507Z,7.10
2019-04-21T21:45:00.727Z,6.07
2019-04-21T21:47:32.144Z,7.83
2019-04-21T21:49:57.785Z,10.03
2019-04-21T21:52:30.598Z,5.40
2019-04-21T21:54:43.609Z,4.30
2019-04-21T21:57:10.720Z,6.70
2019-04-21T21:59:40.435Z,4.80
2019-04-21T22:02:09.553Z,5.77
2019-04-21T22:04:37.895Z,6.20
2019-04-21T22:07:09.952Z,7.40
2019-04-21T22:09:32.809Z,5.80
2019-04-21T22:12:06.283Z,6.12
2019-04-21T22:17:24.754Z,6.25
2019-04-21T22:19:59.876Z,5.33
2019-04-21T22:22:21.376Z,6.47
2019-04-21T22:24:46.687Z,5.70
2019-04-21T22:29:41.811Z,6.82
2019-04-21T22:34:48.727Z,5.70
2019-04-21T22:37:27.498Z,6.27
2019-04-21T22:39:56.919Z,5.50
2019-04-21T22:42:12.195Z,5.20
2019-04-21T22:44:32.717Z,6.40
2019-04-21T22:47:12.243Z,5.65
2019-04-21T22:49:32.603Z,5.57
2019-04-21T22:52:03.972Z,4.90
2019-04-21T22:54:35.506Z,6.80
2019-04-21T22:57:04.523Z,6.50
2019-04-21T22:59:26.760Z,7.15
2019-04-21T23:01:55.887Z,6.13
2019-04-21T23:04:26.879Z,5.33
2019-04-21T23:06:56.614Z,6.70
2019-04-21T23:09:20.723Z,6.13
2019-04-21T23:11:51.483Z,6.00
2019-04-21T23:14:18.905Z,6.20
2019-04-21T23:16:49.073Z,5.47
2019-04-21T23:19:28.110Z,4.43
2019-04-21T23:22:05.638Z,6.53
2019-04-21T23:24:34.667Z,6.00
2019-04-21T23:26:53.799Z,4.20
2019-04-21T23:29:39.184Z,7.70
2019-04-21T23:31:56.063Z,7.40
2019-04-21T23:34:06.418Z,4.33
2019-04-21T23:36:35.963Z,4.60
2019-04-21T23:39:07.021Z,4.23
2019-04-21T23:41:36.166Z,4.17
2019-04-21T23:44:04.614Z,5.10
2019-04-21T23:46:31.984Z,5.03
2019-04-21T23:51:41.990Z,5.47
2019-04-21T23:54:01.896Z,4.13
2019-04-21T23:56:37.202Z,6.93
2019-04-21T23:59:03.189Z,4.80
